createdAt,value
2022-08-19T00:00:52.254Z,98.86
2022-08-19T00:01:53.174Z,98.97
2022-08-19T00:02:52.440Z,98.97
2022-08-19T00:03:53.266Z,99.07
2022-08-19T00:04:52.337Z,99.07
2022-08-19T00:05:52.176Z,98.97
2022-08-19T00:06:52.298Z,99.16
2022-08-19T00:08:13.169Z,99.27
2022-08-19T00:08:52.128Z,99.37
2022-08-19T00:09:52.189Z,99.47
2022-08-19T00:10:52.228Z,99.47
2022-08-19T00:11:52.090Z,99.57
2022-08-19T00:12:52.258Z,99.37
2022-08-19T00:13:53.129Z,99.37
2022-08-19T00:14:52.059Z,99.47
2022-08-19T00:15:52.149Z,99.37
2022-08-19T00:16:52.030Z,99.16
2022-08-19T00:17:52.010Z,99.27
2022-08-19T00:18:53.071Z,99.37
2022-08-19T00:19:51.990Z,99.37
2022-08-19T00:20:52.091Z,99.27
2022-08-19T00:21:52.067Z,99.16
2022-08-19T00:22:52.075Z,99.16
2022-08-19T00:23:51.971Z,99.16
2022-08-19T00:25:14.951Z,98.86
2022-08-19T00:25:51.921Z,99.07
2022-08-19T00:26:51.992Z,99.16
2022-08-19T00:27:51.892Z,99.27
2022-08-19T00:28:51.886Z,99.37
2022-08-19T00:29:52.591Z,99.47
2022-08-19T00:30:51.862Z,99.57
2022-08-19T00:31:51.844Z,99.47
2022-08-19T00:32:52.172Z,99.52
2022-08-19T00:33:51.813Z,99.57
2022-08-19T00:34:51.806Z,99.47
2022-08-19T00:35:56.279Z,99.47
2022-08-19T00:36:51.774Z,99.47
2022-08-19T00:37:51.876Z,99.47
2022-08-19T00:38:51.773Z,99.42
2022-08-19T00:39:51.781Z,99.42
2022-08-19T00:40:51.785Z,99.32
2022-08-19T00:41:51.795Z,99.32
2022-08-19T00:42:51.771Z,99.22
2022-08-19T00:43:51.706Z,99.12
2022-08-19T00:44:51.737Z,99.22
2022-08-19T00:45:51.717Z,99.32
2022-08-19T00:46:58.150Z,99.32
2022-08-19T00:47:52.627Z,99.32
2022-08-19T00:48:51.635Z,99.32
2022-08-19T00:49:51.643Z,99.52
2022-08-19T00:50:52.459Z,99.62
2022-08-19T00:51:51.658Z,99.72
2022-08-19T00:52:51.638Z,99.72
2022-08-19T00:53:51.557Z,99.62
2022-08-19T00:54:52.761Z,99.52
2022-08-19T00:55:51.609Z,99.32
2022-08-19T00:56:51.589Z,99.42
2022-08-19T00:57:51.599Z,99.32
2022-08-19T00:58:51.480Z,99.32
2022-08-19T01:00:01.091Z,99.32
2022-08-19T01:00:52.561Z,99.42
2022-08-19T01:01:51.570Z,99.52
2022-08-19T01:02:51.578Z,99.52
2022-08-19T01:03:57.551Z,99.02
2022-08-19T01:04:52.461Z,98.62
2022-08-19T01:05:51.530Z,99.02
2022-08-19T01:06:51.443Z,98.92
2022-08-19T01:07:51.462Z,98.62
2022-08-19T01:08:51.462Z,98.62
2022-08-19T01:10:12.405Z,98.62
2022-08-19T01:10:51.334Z,98.82
2022-08-19T01:11:51.384Z,99.02
2022-08-19T01:12:51.496Z,98.82
2022-08-19T01:13:51.393Z,99.02
2022-08-19T01:14:51.297Z,99.12
2022-08-19T01:15:53.292Z,99.12
2022-08-19T01:16:51.323Z,99.02
2022-08-19T01:17:51.318Z,99.12
2022-08-19T01:18:51.326Z,98.36
2022-08-19T01:19:51.234Z,98.36
2022-08-19T01:20:51.216Z,98.36
2022-08-19T01:21:51.246Z,98.52
2022-08-19T01:22:51.399Z,98.52
2022-08-19T01:23:51.266Z,98.46
2022-08-19T01:24:51.151Z,98.52
2022-08-19T01:25:51.225Z,98.62
2022-08-19T01:26:51.187Z,98.26
2022-08-19T01:27:53.328Z,98.36
2022-08-19T01:28:52.236Z,98.57
2022-08-19T01:29:51.078Z,98.26
2022-08-19T01:30:51.326Z,97.92
2022-08-19T01:31:51.059Z,97.56
2022-08-19T01:32:51.049Z,97.56
2022-08-19T01:33:51.131Z,98.02
2022-08-19T01:34:51.030Z,98.32
2022-08-19T01:35:51.011Z,98.22
2022-08-19T01:36:51.049Z,98.22
2022-08-19T01:37:51.054Z,97.96
2022-08-19T01:38:51.060Z,97.86
2022-08-19T01:39:51.050Z,97.76
2022-08-19T01:40:51.010Z,97.96
2022-08-19T01:41:50.980Z,97.86
2022-08-19T01:42:50.992Z,97.72
2022-08-19T01:44:13.796Z,97.81
2022-08-19T01:44:51.902Z,98.02
2022-08-19T01:45:51.963Z,97.72
2022-08-19T01:46:50.911Z,97.72
2022-08-19T01:48:01.153Z,97.52
2022-08-19T01:48:51.954Z,97.21
2022-08-19T01:49:50.824Z,97.21
2022-08-19T01:50:50.823Z,97.21
2022-08-19T01:51:51.867Z,97.21
2022-08-19T01:53:02.254Z,97.31
2022-08-19T01:53:51.874Z,97.61
2022-08-19T01:54:50.755Z,97.61
2022-08-19T01:55:50.745Z,97.52
2022-08-19T01:56:51.805Z,97.61
2022-08-19T01:57:50.786Z,97.61
2022-08-19T01:58:50.714Z,97.61
2022-08-19T01:59:50.685Z,97.52
2022-08-19T02:00:50.735Z,97.31
2022-08-19T02:01:50.773Z,97.11
2022-08-19T02:02:52.820Z,97.41
2022-08-19T02:03:50.639Z,97.61
2022-08-19T02:04:50.734Z,97.41
2022-08-19T02:05:50.626Z,97.31
2022-08-19T02:06:50.636Z,97.11
2022-08-19T02:07:50.586Z,97.02
2022-08-19T02:08:50.656Z,97.52
2022-08-19T02:09:50.658Z,97.72
2022-08-19T02:10:50.597Z,97.41
2022-08-19T02:11:50.579Z,97.31
2022-08-19T02:12:50.580Z,97.72
2022-08-19T02:13:50.578Z,98.02
2022-08-19T02:14:50.499Z,98.11
2022-08-19T02:15:50.539Z,98.22
2022-08-19T02:16:50.488Z,98.11
2022-08-19T02:17:50.466Z,98.22
2022-08-19T02:18:50.460Z,97.41
2022-08-19T02:19:50.532Z,97.46
2022-08-19T02:20:50.426Z,97.96
2022-08-19T02:21:50.470Z,98.26
2022-08-19T02:22:50.442Z,98.26
2022-08-19T02:23:50.442Z,98.26
2022-08-19T02:24:50.456Z,98.26
2022-08-19T02:25:50.352Z,98.16
2022-08-19T02:26:50.403Z,97.76
2022-08-19T02:27:51.401Z,97.76
2022-08-19T02:28:50.315Z,97.66
2022-08-19T02:29:50.393Z,97.96
2022-08-19T02:30:50.283Z,97.66
2022-08-19T02:31:50.333Z,97.76
2022-08-19T02:32:50.302Z,97.86
2022-08-19T02:33:50.242Z,98.07
2022-08-19T02:34:50.330Z,98.22
2022-08-19T02:35:50.214Z,98.26
2022-08-19T02:36:51.967Z,98.46
2022-08-19T02:37:50.195Z,98.42
2022-08-19T02:38:54.899Z,98.57
2022-08-19T02:39:51.233Z,98.36
2022-08-19T02:40:50.155Z,98.26
2022-08-19T02:41:50.194Z,98.46
2022-08-19T02:42:50.126Z,98.46
2022-08-19T02:44:30.245Z,98.66
2022-08-19T02:44:51.106Z,98.86
2022-08-19T02:45:50.186Z,98.77
2022-08-19T02:46:50.127Z,98.77
2022-08-19T02:47:50.056Z,98.66
2022-08-19T02:48:50.127Z,98.66
2022-08-19T02:49:50.037Z,98.07
2022-08-19T02:50:53.395Z,97.96
2022-08-19T02:51:50.057Z,98.16
2022-08-19T02:52:50.038Z,98.16
2022-08-19T02:53:49.989Z,98.26
2022-08-19T02:54:52.023Z,98.57
2022-08-19T02:55:50.059Z,98.77
2022-08-19T02:56:49.950Z,98.97
2022-08-19T02:57:49.975Z,98.97
2022-08-19T02:58:49.919Z,99.27
2022-08-19T02:59:49.979Z,99.27
2022-08-19T03:00:49.993Z,99.27
2022-08-19T03:01:49.928Z,99.47
2022-08-19T03:02:49.960Z,99.37
2022-08-19T03:03:49.900Z,99.27
2022-08-19T03:04:49.910Z,99.37
2022-08-19T03:05:56.760Z,99.27
2022-08-19T03:06:50.831Z,99.16
2022-08-19T03:07:49.793Z,99.27
2022-08-19T03:08:49.783Z,99.16
2022-08-19T03:09:49.844Z,99.07
2022-08-19T03:10:49.857Z,99.07
2022-08-19T03:11:52.033Z,99.07
2022-08-19T03:12:49.801Z,98.97
2022-08-19T03:13:49.732Z,98.97
2022-08-19T03:14:49.783Z,98.97
2022-08-19T03:15:49.684Z,98.97
2022-08-19T03:17:10.683Z,98.86
2022-08-19T03:17:49.668Z,98.77
2022-08-19T03:18:49.695Z,98.97
2022-08-19T03:19:49.712Z,99.07
2022-08-19T03:20:49.723Z,99.07
2022-08-19T03:21:49.629Z,98.97
2022-08-19T03:22:50.693Z,98.77
2022-08-19T03:23:49.648Z,98.86
2022-08-19T03:24:49.648Z,98.77
2022-08-19T03:25:58.361Z,98.81
2022-08-19T03:26:52.661Z,98.71
2022-08-19T03:27:49.539Z,98.71
2022-08-19T03:28:51.653Z,98.61
2022-08-19T03:29:50.597Z,98.91
2022-08-19T03:30:49.586Z,99.21
2022-08-19T03:31:52.237Z,99.21
2022-08-19T03:32:53.357Z,99.32
2022-08-19T03:33:51.548Z,99.01
2022-08-19T03:34:49.508Z,98.81
2022-08-19T03:35:49.509Z,98.91
2022-08-19T03:36:49.429Z,99.01
2022-08-19T03:37:49.409Z,99.01
2022-08-19T03:38:49.433Z,99.01
2022-08-19T03:39:50.404Z,99.01
2022-08-19T03:40:49.439Z,99.01
2022-08-19T03:41:49.450Z,98.91
2022-08-19T03:42:49.698Z,98.81
2022-08-19T03:43:49.370Z,98.71
2022-08-19T03:44:49.371Z,98.51
2022-08-19T03:45:49.329Z,98.21
2022-08-19T03:46:49.272Z,98.01
2022-08-19T03:47:49.281Z,98.01
2022-08-19T03:48:49.258Z,98.11
2022-08-19T03:49:49.318Z,98.31
2022-08-19T04:03:33.643Z,98.51
2022-08-19T04:04:33.622Z,98.61
2022-08-19T04:05:33.613Z,98.11
2022-08-19T04:06:33.594Z,98.11
2022-08-19T04:07:33.593Z,98.21
2022-08-19T04:08:33.563Z,98.11
2022-08-19T04:09:33.563Z,98.31
2022-08-19T04:10:33.543Z,98.31
2022-08-19T04:11:43.604Z,98.51
2022-08-19T04:12:34.526Z,98.41
2022-08-19T04:13:33.515Z,98.51
2022-08-19T04:14:33.494Z,98.51
2022-08-19T04:15:33.476Z,98.61
2022-08-19T04:16:35.245Z,98.61
2022-08-19T04:17:33.482Z,98.71
2022-08-19T04:18:36.377Z,98.71
2022-08-19T04:19:33.428Z,98.61
2022-08-19T04:20:33.416Z,98.61
2022-08-19T04:21:33.407Z,98.11
2022-08-19T04:22:33.406Z,98.01
2022-08-19T04:23:33.376Z,98.11
2022-08-19T04:24:33.392Z,98.41
2022-08-19T04:25:33.364Z,98.61
2022-08-19T04:26:34.336Z,98.41
2022-08-19T04:27:33.337Z,98.31
2022-08-19T04:28:33.334Z,98.61
2022-08-19T04:29:33.309Z,98.71
2022-08-19T04:30:33.298Z,98.81
2022-08-19T04:31:33.290Z,99.11
2022-08-19T04:32:33.268Z,99.01
2022-08-19T04:33:33.283Z,99.11
2022-08-19T04:34:33.246Z,99.01
2022-08-19T04:35:33.231Z,98.81
2022-08-19T04:36:33.219Z,98.71
2022-08-19T04:37:35.114Z,98.71
2022-08-19T04:38:33.200Z,98.61
2022-08-19T04:39:33.222Z,98.41
2022-08-19T04:40:33.160Z,98.61
2022-08-19T04:41:33.152Z,98.41
2022-08-19T04:42:33.149Z,98.31
2022-08-19T04:43:33.142Z,98.31
2022-08-19T04:44:33.389Z,98.31
2022-08-19T04:45:39.633Z,98.51
2022-08-19T04:46:39.642Z,98.51
2022-08-19T04:47:47.443Z,98.61
2022-08-19T04:48:35.213Z,98.71
2022-08-19T04:49:33.053Z,98.71
2022-08-19T04:50:33.043Z,98.71
2022-08-19T04:51:33.032Z,98.66
2022-08-19T04:52:33.016Z,98.81
2022-08-19T04:53:37.842Z,98.77
2022-08-19T04:54:38.163Z,98.91
2022-08-19T04:55:38.210Z,99.07
2022-08-19T04:56:32.974Z,99.07
2022-08-19T04:57:32.955Z,99.07
2022-08-19T04:58:32.955Z,98.86
2022-08-19T04:59:32.936Z,98.86
2022-08-19T05:00:32.915Z,98.66
2022-08-19T05:01:32.989Z,98.66
2022-08-19T05:02:32.897Z,98.41
2022-08-19T05:03:32.898Z,98.21
2022-08-19T05:04:33.262Z,98.31
2022-08-19T05:05:32.858Z,98.61
2022-08-19T05:06:33.846Z,98.71
2022-08-19T05:07:32.838Z,98.77
2022-08-19T05:08:33.138Z,98.77
2022-08-19T05:09:55.734Z,98.77
2022-08-19T05:10:33.817Z,98.77
2022-08-19T05:11:32.788Z,98.77
2022-08-19T05:12:32.770Z,98.77
2022-08-19T05:13:32.769Z,98.77
2022-08-19T05:14:32.748Z,98.66
2022-08-19T05:15:32.740Z,98.77
2022-08-19T05:16:32.719Z,98.46
2022-08-19T05:17:37.793Z,98.57
2022-08-19T05:18:33.711Z,98.46
2022-08-19T05:19:33.612Z,98.46
2022-08-19T05:20:32.671Z,98.26
2022-08-19T05:21:32.661Z,98.16
2022-08-19T05:22:32.649Z,98.36
2022-08-19T05:23:32.651Z,98.07
2022-08-19T05:24:32.630Z,98.02
2022-08-19T05:25:32.612Z,97.92
2022-08-19T05:26:32.592Z,97.72
2022-08-19T05:27:32.583Z,97.72
2022-08-19T05:28:32.562Z,97.81
2022-08-19T05:29:36.296Z,97.81
2022-08-19T05:30:46.510Z,97.81
2022-08-19T05:31:33.537Z,97.92
2022-08-19T05:32:32.512Z,97.92
2022-08-19T05:33:32.504Z,97.81
2022-08-19T05:34:32.494Z,97.92
2022-08-19T05:35:34.734Z,97.67
2022-08-19T05:36:32.465Z,96.97
2022-08-19T05:37:32.457Z,96.36
2022-08-19T05:38:32.445Z,95.97
2022-08-19T05:39:32.487Z,96.06
2022-08-19T05:40:32.425Z,96.26
2022-08-19T05:41:32.414Z,96.36
2022-08-19T05:42:32.403Z,96.36
2022-08-19T05:43:32.388Z,96.36
2022-08-19T05:44:32.380Z,96.56
2022-08-19T05:45:32.358Z,96.26
2022-08-19T05:46:32.349Z,96.26
2022-08-19T05:47:32.338Z,96.06
2022-08-19T05:48:32.317Z,96.17
2022-08-19T05:49:32.318Z,96.12
2022-08-19T05:50:32.289Z,95.82
2022-08-19T05:51:32.278Z,95.12
2022-08-19T05:52:33.505Z,95.12
2022-08-19T05:53:32.260Z,95.21
2022-08-19T05:54:32.291Z,95.12
2022-08-19T05:55:32.232Z,95.01
2022-08-19T05:56:32.218Z,95.01
2022-08-19T05:57:33.202Z,94.92
2022-08-19T05:58:32.190Z,94.21
2022-08-19T05:59:32.180Z,94.21
2022-08-19T06:00:32.170Z,94.12
2022-08-19T06:01:32.152Z,94.42
2022-08-19T06:02:32.201Z,94.62
2022-08-19T06:03:32.129Z,94.62
2022-08-19T06:04:32.118Z,94.92
2022-08-19T06:05:32.111Z,94.92
2022-08-19T06:06:33.082Z,94.62
2022-08-19T06:07:32.127Z,94.62
2022-08-19T06:08:34.008Z,94.62
2022-08-19T06:09:32.044Z,94.71
2022-08-19T06:10:32.052Z,95.01
2022-08-19T06:11:32.024Z,94.82
2022-08-19T06:12:32.013Z,94.71
2022-08-19T06:13:33.364Z,94.42
2022-08-19T06:14:31.995Z,93.91
2022-08-19T06:15:31.985Z,94.01
2022-08-19T06:16:31.954Z,94.31
2022-08-19T06:17:32.528Z,94.82
2022-08-19T06:18:31.938Z,95.32
2022-08-19T06:19:31.928Z,94.82
2022-08-19T06:20:54.483Z,94.71
2022-08-19T06:21:32.895Z,95.32
2022-08-19T06:22:31.877Z,95.52
2022-08-19T06:23:31.888Z,95.42
2022-08-19T06:24:31.858Z,95.32
2022-08-19T06:25:31.867Z,95.42
2022-08-19T06:26:31.829Z,95.12
2022-08-19T06:27:31.818Z,95.32
2022-08-19T06:28:31.797Z,95.21
2022-08-19T06:29:31.807Z,95.32
2022-08-19T06:30:31.801Z,95.12
2022-08-19T06:31:31.787Z,94.77
2022-08-19T06:32:31.748Z,94.77
2022-08-19T06:33:31.769Z,94.67
2022-08-19T06:34:31.728Z,94.77
2022-08-19T06:35:32.754Z,94.27
2022-08-19T06:36:31.709Z,94.37
2022-08-19T06:37:31.680Z,94.17
2022-08-19T06:38:31.672Z,93.82
2022-08-19T06:39:31.704Z,93.73
2022-08-19T06:40:31.668Z,93.82
2022-08-19T06:41:31.646Z,93.62
2022-08-19T06:42:31.615Z,93.52
2022-08-19T06:43:31.611Z,92.98
2022-08-19T06:44:31.937Z,92.88
2022-08-19T06:45:34.536Z,92.68
2022-08-19T06:46:31.571Z,92.98
2022-08-19T06:47:31.555Z,92.08
2022-08-19T06:48:31.544Z,91.28
2022-08-19T06:49:31.536Z,91.38
2022-08-19T06:50:31.517Z,91.78
2022-08-19T06:52:31.484Z,92.68
2022-08-19T06:53:31.474Z,92.68
2022-08-19T06:54:31.464Z,93.28
2022-08-19T06:55:33.500Z,92.78
2022-08-19T06:56:31.455Z,91.78
2022-08-19T06:57:31.416Z,91.88
2022-08-19T06:58:31.413Z,91.17
2022-08-19T06:59:31.402Z,91.78
2022-08-19T07:01:31.377Z,91.28
2022-08-19T07:02:31.357Z,90.17
2022-08-19T07:03:31.338Z,90.78
2022-08-19T07:04:31.328Z,90.58
2022-08-19T07:05:31.318Z,90.58
2022-08-19T07:06:44.103Z,90.28
2022-08-19T07:07:32.290Z,90.58
2022-08-19T07:08:31.367Z,90.33
2022-08-19T07:09:31.267Z,90.53
2022-08-19T07:10:31.256Z,89.83
2022-08-19T07:11:31.256Z,90.03
2022-08-19T07:12:31.226Z,90.23
2022-08-19T07:13:31.210Z,90.13
2022-08-19T07:14:31.200Z,90.13
2022-08-19T07:15:31.179Z,90.23
2022-08-19T07:16:31.187Z,90.44
2022-08-19T07:17:31.186Z,90.53
2022-08-19T07:18:31.152Z,90.73
2022-08-19T07:19:31.120Z,90.28
2022-08-19T07:20:31.119Z,90.08
2022-08-19T07:21:31.104Z,89.48
2022-08-19T07:22:31.111Z,89.87
2022-08-19T07:23:31.106Z,90.08
2022-08-19T07:24:31.198Z,90.88
2022-08-19T07:25:32.287Z,90.48
2022-08-19T07:26:31.044Z,90.67
2022-08-19T07:27:31.043Z,90.67
2022-08-19T07:28:31.014Z,90.67
2022-08-19T07:29:30.984Z,90.62
2022-08-19T07:30:31.471Z,91.42
2022-08-19T07:31:31.078Z,91.42
2022-08-19T07:32:30.972Z,91.42
2022-08-19T07:33:30.944Z,91.42
2022-08-19T07:34:30.924Z,91.62
2022-08-19T07:35:30.924Z,91.42
2022-08-19T07:36:30.914Z,91.82
2022-08-19T07:37:33.411Z,92.42
2022-08-19T07:38:30.877Z,91.72
2022-08-19T07:39:30.916Z,91.82
2022-08-19T07:40:31.867Z,91.22
2022-08-19T07:41:30.835Z,90.72
2022-08-19T07:42:31.105Z,91.32
2022-08-19T07:43:34.847Z,90.92
2022-08-19T07:44:30.880Z,91.52
2022-08-19T07:45:30.779Z,90.32
2022-08-19T07:46:30.779Z,90.12
2022-08-19T07:47:50.318Z,89.87
2022-08-19T07:48:31.758Z,89.98
2022-08-19T07:49:30.728Z,89.48
2022-08-19T07:50:30.729Z,90.17
2022-08-19T07:51:36.628Z,89.92
2022-08-19T07:52:31.720Z,89.87
2022-08-19T07:53:30.681Z,89.82
2022-08-19T07:54:30.673Z,89.72
2022-08-19T07:55:40.380Z,90.42
2022-08-19T07:56:31.668Z,90.12
2022-08-19T07:57:30.685Z,90.02
2022-08-19T07:58:30.634Z,89.72
2022-08-19T07:59:30.614Z,89.62
2022-08-19T08:00:30.596Z,90.02
2022-08-19T08:01:30.618Z,89.92
2022-08-19T08:02:30.583Z,90.02
2022-08-19T08:03:30.544Z,90.22
2022-08-19T08:04:30.535Z,90.32
2022-08-19T08:05:30.544Z,89.92
2022-08-19T08:06:30.515Z,90.62
2022-08-19T08:07:31.497Z,90.62
2022-08-19T08:08:30.484Z,91.12
2022-08-19T08:09:30.464Z,91.42
2022-08-19T08:10:30.459Z,91.02
2022-08-19T08:11:30.447Z,90.82
2022-08-19T08:12:34.558Z,91.12
2022-08-19T08:13:30.418Z,91.22
2022-08-19T08:14:35.114Z,90.42
2022-08-19T08:15:31.396Z,90.72
2022-08-19T08:16:31.393Z,91.32
2022-08-19T08:17:48.518Z,91.32
2022-08-19T08:18:31.368Z,91.62
2022-08-19T08:19:30.339Z,92.22
2022-08-19T08:20:30.327Z,92.32
2022-08-19T08:21:30.319Z,92.22
2022-08-19T08:22:30.307Z,91.22
2022-08-19T08:23:30.289Z,90.12
2022-08-19T08:24:30.271Z,89.92
2022-08-19T08:25:32.565Z,90.58
2022-08-19T08:26:31.242Z,90.78
2022-08-19T08:27:30.228Z,90.98
2022-08-19T08:28:30.235Z,90.28
2022-08-19T08:29:34.708Z,90.33
2022-08-19T08:30:32.749Z,89.23
2022-08-19T08:31:31.161Z,88.73
2022-08-19T08:32:30.172Z,88.39
2022-08-19T08:33:34.695Z,87.59
2022-08-19T08:34:30.141Z,86.89
2022-08-19T08:35:30.132Z,86.75
2022-08-19T08:36:30.111Z,86.35
2022-08-19T08:37:30.104Z,87.15
2022-08-19T08:38:30.188Z,86.65
2022-08-19T08:39:31.109Z,86.15
2022-08-19T08:40:30.052Z,86.15
2022-08-19T08:41:30.058Z,86.05
2022-08-19T08:42:30.044Z,85.85
2022-08-19T08:43:32.211Z,86.35
2022-08-19T08:44:30.006Z,85.95
2022-08-19T08:45:30.009Z,86.25
2022-08-19T08:46:31.677Z,86.85
2022-08-19T08:47:29.969Z,86.99
2022-08-19T08:48:29.957Z,86.99
2022-08-19T08:49:29.939Z,87.19
2022-08-19T08:50:29.926Z,86.89
2022-08-19T08:51:34.455Z,86.99
2022-08-19T08:52:32.069Z,86.99
2022-08-19T08:53:33.390Z,87.69
2022-08-19T08:54:29.868Z,87.09
2022-08-19T08:55:36.369Z,87.59
2022-08-19T08:57:30.559Z,86.59
2022-08-19T08:58:30.832Z,85.75
2022-08-19T08:59:29.787Z,85.85
2022-08-19T09:00:29.788Z,85.45
2022-08-19T09:01:30.334Z,85.15
2022-08-19T09:02:29.768Z,85.71
2022-08-19T09:03:31.385Z,85.81
2022-08-19T09:04:29.740Z,85.61
2022-08-19T09:05:39.512Z,85.21
2022-08-19T09:06:30.711Z,85.01
2022-08-19T09:07:35.048Z,85.91
2022-08-19T09:08:30.680Z,85.21
2022-08-19T09:09:29.700Z,85.05
2022-08-19T09:10:29.658Z,85.01
2022-08-19T09:11:42.128Z,84.75
2022-08-19T09:12:30.620Z,85.31
2022-08-19T09:13:30.188Z,85.05
2022-08-19T09:14:49.792Z,85.45
2022-08-19T09:15:33.420Z,85.35
2022-08-19T09:16:29.577Z,85.95
2022-08-19T09:17:29.562Z,86.05
2022-08-19T09:18:29.705Z,86.35
2022-08-19T09:19:29.553Z,87.15
2022-08-19T09:20:29.516Z,87.05
2022-08-19T09:21:33.090Z,86.25
2022-08-19T09:22:29.506Z,85.55
2022-08-19T09:23:29.476Z,85.65
2022-08-19T09:24:31.276Z,86.05
2022-08-19T09:25:29.690Z,86.15
2022-08-19T09:26:47.128Z,86.49
2022-08-19T09:27:42.310Z,86.79
2022-08-19T09:28:30.425Z,86.59
2022-08-19T09:29:29.404Z,86.39
2022-08-19T09:30:29.383Z,87.09
2022-08-19T09:31:29.370Z,87.45
2022-08-19T09:32:29.364Z,86.75
2022-08-19T09:33:30.216Z,86.75
2022-08-19T09:34:29.346Z,86.45
2022-08-19T09:35:29.307Z,86.25
2022-08-19T09:36:34.529Z,86.25
2022-08-19T09:37:30.286Z,86.35
2022-08-19T09:38:29.277Z,86.09
2022-08-19T09:39:36.081Z,85.99
2022-08-19T09:40:31.894Z,86.39
2022-08-19T09:41:29.886Z,86.39
2022-08-19T09:42:30.384Z,86.79
2022-08-19T09:43:33.631Z,87.09
2022-08-19T09:44:30.219Z,86.99
2022-08-19T09:45:29.171Z,86.99
2022-08-19T09:46:29.170Z,88.09
2022-08-19T10:03:54.868Z,87.73
2022-08-19T10:04:54.837Z,87.93
2022-08-19T10:05:55.360Z,88.43
2022-08-19T10:06:55.460Z,87.83
2022-08-19T10:07:56.846Z,88.13
2022-08-19T10:08:54.790Z,87.73
2022-08-19T10:09:54.772Z,87.63
2022-08-19T10:10:54.771Z,87.83
2022-08-19T10:11:55.194Z,87.34
2022-08-19T10:12:54.749Z,87.63
2022-08-19T10:13:54.730Z,87.63
2022-08-19T10:14:54.710Z,87.53
2022-08-19T10:15:54.710Z,87.99
2022-08-19T10:17:02.193Z,87.69
2022-08-19T10:17:55.747Z,87.19
2022-08-19T10:18:59.057Z,87.89
2022-08-19T10:19:55.543Z,87.09
2022-08-19T10:20:54.657Z,87.09
2022-08-19T10:21:55.800Z,87.09
2022-08-19T10:22:55.616Z,87.19
2022-08-19T10:23:54.595Z,87.49
2022-08-19T10:24:54.586Z,87.29
2022-08-19T10:25:54.635Z,87.29
2022-08-19T10:26:55.882Z,87.49
2022-08-19T10:27:56.008Z,87.79
2022-08-19T10:28:54.537Z,87.49
2022-08-19T10:29:54.537Z,87.39
2022-08-19T10:30:54.519Z,87.23
2022-08-19T10:31:59.856Z,87.53
2022-08-19T10:32:55.499Z,87.03
2022-08-19T10:33:54.482Z,87.43
2022-08-19T10:34:57.196Z,87.63
2022-08-19T10:35:56.888Z,87.13
2022-08-19T10:36:56.331Z,87.43
2022-08-19T10:37:57.555Z,87.73
2022-08-19T10:38:56.994Z,87.53
2022-08-19T10:39:55.572Z,87.73
2022-08-19T10:40:54.401Z,87.43
2022-08-19T10:41:54.421Z,87.63
2022-08-19T10:42:54.354Z,87.63
2022-08-19T10:43:54.405Z,87.53
2022-08-19T10:44:54.345Z,87.63
2022-08-19T10:45:54.390Z,87.63
2022-08-19T10:46:54.381Z,87.73
2022-08-19T10:47:54.506Z,88.23
2022-08-19T10:48:54.286Z,87.73
2022-08-19T10:49:54.271Z,87.34
2022-08-19T10:50:54.311Z,87.83
2022-08-19T10:51:54.261Z,87.53
2022-08-19T10:52:54.262Z,87.13
2022-08-19T10:53:54.223Z,87.13
2022-08-19T10:54:54.302Z,86.93
2022-08-19T10:55:54.323Z,86.33
2022-08-19T10:56:54.187Z,86.33
2022-08-19T10:58:02.131Z,86.53
2022-08-19T10:58:55.156Z,86.03
2022-08-19T10:59:54.207Z,86.13
2022-08-19T11:00:54.364Z,86.73
2022-08-19T11:01:54.224Z,87.13
2022-08-19T11:02:54.136Z,86.93
2022-08-19T11:03:54.106Z,87.83
2022-08-19T11:04:54.138Z,86.83
2022-08-19T11:05:54.176Z,87.03
2022-08-19T11:06:54.156Z,87.03
2022-08-19T11:08:23.487Z,87.03
2022-08-19T11:08:55.120Z,87.53
2022-08-19T11:09:54.070Z,87.43
2022-08-19T11:10:54.120Z,88.07
2022-08-19T11:11:54.089Z,88.07
2022-08-19T11:12:53.987Z,88.57
2022-08-19T11:13:56.103Z,88.78
2022-08-19T11:14:54.008Z,90.08
2022-08-19T11:15:54.052Z,90.88
2022-08-19T11:16:54.019Z,90.37
2022-08-19T11:17:54.035Z,91.17
2022-08-19T11:18:54.075Z,90.67
2022-08-19T11:19:53.879Z,90.98
2022-08-19T11:20:53.987Z,91.08
2022-08-19T11:21:53.849Z,91.08
2022-08-19T11:22:53.970Z,90.98
2022-08-19T11:23:53.843Z,91.88
2022-08-19T11:24:53.889Z,92.38
2022-08-19T11:25:53.821Z,93.08
2022-08-19T11:26:54.959Z,92.98
2022-08-19T11:27:54.110Z,92.88
2022-08-19T11:28:53.867Z,92.42
2022-08-19T11:29:53.803Z,92.62
2022-08-19T11:30:53.936Z,92.38
2022-08-19T11:31:53.773Z,92.18
2022-08-19T11:32:53.765Z,92.28
2022-08-19T11:33:53.723Z,92.48
2022-08-19T11:34:55.829Z,92.32
2022-08-19T11:35:53.684Z,92.32
2022-08-19T11:36:53.917Z,91.52
2022-08-19T11:37:53.831Z,92.52
2022-08-19T11:38:53.735Z,92.82
2022-08-19T11:39:54.026Z,92.82
2022-08-19T11:40:53.727Z,92.42
2022-08-19T11:41:53.626Z,91.82
2022-08-19T11:42:54.687Z,92.02
2022-08-19T11:43:53.618Z,92.02
2022-08-19T11:44:53.678Z,92.42
2022-08-19T11:45:53.569Z,92.42
2022-08-19T11:46:53.568Z,92.42
2022-08-19T11:47:53.846Z,93.02
2022-08-19T11:48:53.517Z,93.32
2022-08-19T11:49:53.608Z,93.23
2022-08-19T11:50:53.499Z,93.93
2022-08-19T11:51:53.967Z,93.82
2022-08-19T11:52:53.530Z,93.73
2022-08-19T11:54:00.943Z,94.43
2022-08-19T11:55:00.951Z,94.53
2022-08-19T11:56:02.133Z,94.62
2022-08-19T11:57:00.926Z,95.03
2022-08-19T11:58:01.043Z,94.62
2022-08-19T11:59:54.836Z,94.77
2022-08-19T12:01:05.540Z,94.87
2022-08-19T12:02:02.357Z,94.57
2022-08-19T12:02:54.800Z,95.17
2022-08-19T12:03:54.858Z,95.17
2022-08-19T12:04:55.898Z,95.27
2022-08-19T12:05:54.783Z,94.57
2022-08-19T12:06:54.804Z,94.67
2022-08-19T12:07:54.848Z,94.77
2022-08-19T12:08:54.872Z,95.07
2022-08-19T12:09:54.773Z,94.87
2022-08-19T12:10:54.785Z,94.87
2022-08-19T12:11:54.704Z,95.37
2022-08-19T12:12:58.671Z,95.27
2022-08-19T12:13:54.675Z,95.17
2022-08-19T12:14:54.733Z,95.17
2022-08-19T12:15:54.663Z,95.47
2022-08-19T12:16:54.755Z,95.37
2022-08-19T12:17:54.918Z,95.47
2022-08-19T12:18:54.664Z,95.37
2022-08-19T12:19:54.645Z,95.37
2022-08-19T12:20:54.600Z,95.47
2022-08-19T12:21:54.658Z,95.27
2022-08-19T12:22:54.556Z,95.27
2022-08-19T12:23:55.908Z,95.17
2022-08-19T12:24:54.534Z,95.87
2022-08-19T12:25:54.607Z,95.67
2022-08-19T12:26:54.588Z,95.27
2022-08-19T12:27:57.645Z,95.57
2022-08-19T12:28:54.595Z,95.47
2022-08-19T12:31:04.705Z,95.57
2022-08-19T12:32:04.746Z,95.77
2022-08-19T12:33:04.666Z,95.47
2022-08-19T12:34:04.777Z,95.53
2022-08-19T12:35:04.668Z,95.62
2022-08-19T12:36:04.717Z,95.73
2022-08-19T12:37:04.686Z,95.83
2022-08-19T12:38:04.618Z,95.43
2022-08-19T12:39:04.697Z,96.13
2022-08-19T12:40:04.644Z,96.43
2022-08-19T12:41:05.667Z,96.03
2022-08-19T12:42:05.648Z,96.43
2022-08-19T12:43:04.628Z,96.63
2022-08-19T12:44:04.666Z,96.53
2022-08-19T12:45:05.908Z,96.23
2022-08-19T12:46:04.530Z,96.53
2022-08-19T12:47:06.148Z,96.73
2022-08-19T12:48:32.965Z,96.53
2022-08-19T12:49:05.479Z,96.93
2022-08-19T12:50:07.029Z,96.83
2022-08-19T12:51:04.441Z,96.93
2022-08-19T12:52:04.521Z,96.43
2022-08-19T12:53:06.466Z,95.62
2022-08-19T12:54:04.500Z,96.13
2022-08-19T12:55:04.501Z,96.23
2022-08-19T12:56:04.405Z,96.53
2022-08-19T12:57:04.421Z,96.43
2022-08-19T12:58:04.427Z,96.73
2022-08-19T12:59:04.342Z,97.23
2022-08-19T13:00:04.879Z,97.03
2022-08-19T13:01:04.401Z,97.13
2022-08-19T13:02:04.353Z,96.58
2022-08-19T13:03:04.305Z,96.88
2022-08-19T13:04:04.274Z,97.38
2022-08-19T13:05:04.285Z,97.58
2022-08-19T13:06:04.314Z,97.17
2022-08-19T13:07:04.245Z,97.08
2022-08-19T13:08:04.294Z,97.17
2022-08-19T13:09:04.292Z,96.97
2022-08-19T13:10:04.296Z,97.43
2022-08-19T13:11:04.217Z,97.43
2022-08-19T13:12:04.187Z,97.43
2022-08-19T13:13:04.169Z,97.53
2022-08-19T13:14:04.164Z,97.83
2022-08-19T13:15:10.744Z,97.63
2022-08-19T13:16:05.148Z,97.33
2022-08-19T13:17:04.168Z,97.33
2022-08-19T13:18:04.109Z,97.33
2022-08-19T13:19:04.171Z,97.53
2022-08-19T13:20:04.179Z,97.83
2022-08-19T13:21:04.122Z,97.93
2022-08-19T13:22:04.073Z,97.93
2022-08-19T13:23:04.040Z,97.73
2022-08-19T13:24:04.091Z,97.93
2022-08-19T13:25:04.084Z,98.23
2022-08-19T13:26:04.030Z,97.43
2022-08-19T13:27:04.012Z,97.23